Time;durP1;ratioP1;P1;durP2;ratioP2;P2;SDS_P1;SDS_P2;PMS_P1;PMS_P2;Temp;Humidity;BMP_temperature;BMP_pressure;BME280_temperature;BME280_humidity;BME280_pressure;Samples;Min_cycle;Max_cycle;Signal;HPM_P1;HPM_P2
2021/06/26 00:02:22;;;;;;;2.70;2.50;;;;;;;;;;4996090;28;20102;-78
2021/06/26 00:04:49;;;;;;;2.55;2.35;;;;;;;;;;4995619;28;20101;-77
2021/06/26 00:07:15;;;;;;;3.00;2.70;;;;;;;;;;4996284;28;20033;-77
2021/06/26 00:09:41;;;;;;;2.53;2.33;;;;;;;;;;4979577;28;20089;-78
2021/06/26 00:12:07;;;;;;;2.83;2.53;;;;;;;;;;4998487;28;20133;-79
2021/06/26 00:14:33;;;;;;;2.50;2.30;;;;;;;;;;4997267;28;20109;-77
2021/06/26 00:16:59;;;;;;;3.50;3.20;;;;;;;;;;5021520;23;20045;-76
2021/06/26 00:19:25;;;;;;;2.22;2.10;;;;;;;;;;5019006;28;20025;-74
2021/06/26 00:21:52;;;;;;;2.63;2.42;;;;;;;;;;5044746;28;20017;-74
2021/06/26 00:24:18;;;;;;;2.20;2.00;;;;;;;;;;5053119;28;20025;-74
2021/06/26 00:26:44;;;;;;;5.32;2.50;;;;;;;;;;5046574;28;20053;-74
2021/06/26 00:29:10;;;;;;;2.08;1.70;;;;;;;;;;5012224;28;20061;-74
2021/06/26 00:31:36;;;;;;;2.10;1.88;;;;;;;;;;5012726;28;20092;-74
2021/06/26 00:34:02;;;;;;;2.00;1.90;;;;;;;;;;5012799;28;20034;-74
2021/06/26 00:36:28;;;;;;;1.73;1.63;;;;;;;;;;5011782;28;20101;-74
2021/06/26 00:38:54;;;;;;;2.17;2.08;;;;;;;;;;4997291;28;20019;-74
2021/06/26 00:41:20;;;;;;;2.10;1.90;;;;;;;;;;4992568;28;20026;-74
2021/06/26 00:43:46;;;;;;;1.77;1.67;;;;;;;;;;4992842;28;20018;-74
2021/06/26 00:46:12;;;;;;;2.55;2.35;;;;;;;;;;4992877;28;20029;-74
2021/06/26 00:48:38;;;;;;;1.77;1.67;;;;;;;;;;5001782;28;20029;-74
2021/06/26 00:51:04;;;;;;;2.80;2.60;;;;;;;;;;5022009;28;20114;-74
2021/06/26 00:53:30;;;;;;;2.75;2.28;;;;;;;;;;5031799;28;20082;-74
2021/06/26 00:55:57;;;;;;;2.25;2.13;;;;;;;;;;5032161;28;20493;-74
2021/06/26 00:58:24;;;;;;;2.17;1.95;;;;;;;;;;5025751;28;20053;-74
2021/06/26 01:00:51;;;;;;;1.88;1.77;;;;;;;;;;5012137;28;20076;-74
2021/06/26 01:03:18;;;;;;;2.20;1.98;;;;;;;;;;5011842;28;20022;-74
2021/06/26 01:05:44;;;;;;;2.33;2.13;;;;;;;;;;4994510;28;20022;-74
2021/06/26 01:08:10;;;;;;;2.22;1.90;;;;;;;;;;5011833;28;20029;-73
2021/06/26 01:10:36;;;;;;;2.15;1.95;;;;;;;;;;4992148;28;20030;-74
2021/06/26 01:13:03;;;;;;;2.15;1.98;;;;;;;;;;4992446;28;20117;-74
2021/06/26 01:15:29;;;;;;;2.38;2.17;;;;;;;;;;4992095;28;20030;-74
2021/06/26 01:17:55;;;;;;;3.03;2.55;;;;;;;;;;4992243;28;20034;-74
2021/06/26 01:20:21;;;;;;;2.72;2.22;;;;;;;;;;5017634;28;20026;-74
2021/06/26 01:22:54;;;;;;;2.28;2.03;;;;;;;;;;5027601;28;20029;-74
2021/06/26 01:25:22;;;;;;;2.33;1.98;;;;;;;;;;5031989;28;20022;-74
2021/06/26 01:27:48;;;;;;;2.58;2.38;;;;;;;;;;5031522;28;20029;-74
2021/06/26 01:30:15;;;;;;;2.58;2.38;;;;;;;;;;5019261;28;20041;-74
2021/06/26 01:32:41;;;;;;;2.58;2.38;;;;;;;;;;5011970;28;20471;-75
2021/06/26 01:35:08;;;;;;;3.15;2.70;;;;;;;;;;5011689;28;20517;-74
2021/06/26 01:37:34;;;;;;;3.58;2.40;;;;;;;;;;5011799;28;20018;-74
2021/06/26 01:40:00;;;;;;;2.80;2.60;;;;;;;;;;5004617;28;20364;-75
2021/06/26 01:42:26;;;;;;;2.83;2.63;;;;;;;;;;4992473;28;20391;-75
2021/06/26 01:44:52;;;;;;;2.40;2.20;;;;;;;;;;4992050;28;20373;-74
2021/06/26 01:47:18;;;;;;;3.00;2.80;;;;;;;;;;4992994;28;20126;-74
2021/06/26 01:49:44;;;;;;;2.30;2.10;;;;;;;;;;5011243;28;20104;-74
2021/06/26 01:52:10;;;;;;;2.25;2.05;;;;;;;;;;5027022;28;20068;-75
2021/06/26 01:54:37;;;;;;;2.70;2.30;;;;;;;;;;5017923;28;20034;-74
2021/06/26 01:57:04;;;;;;;3.45;2.47;;;;;;;;;;5026581;28;20057;-75
2021/06/26 01:59:30;;;;;;;2.40;2.20;;;;;;;;;;5014933;28;20029;-75
2021/06/26 02:01:56;;;;;;;2.65;2.45;;;;;;;;;;5015519;28;20018;-75
2021/06/26 02:04:22;;;;;;;2.50;2.30;;;;;;;;;;5015501;28;20076;-75
2021/06/26 02:06:48;;;;;;;2.60;1.90;;;;;;;;;;5012421;28;20715;-75
2021/06/26 02:09:14;;;;;;;2.50;2.28;;;;;;;;;;4995475;28;20113;-74
2021/06/26 02:11:40;;;;;;;3.08;2.80;;;;;;;;;;4978142;28;20037;-74
2021/06/26 02:14:06;;;;;;;3.28;2.97;;;;;;;;;;4995566;28;20061;-75
2021/06/26 02:16:32;;;;;;;3.13;2.70;;;;;;;;;;4995334;28;20030;-75
2021/06/26 02:18:58;;;;;;;2.85;2.33;;;;;;;;;;5009390;28;20442;-75
2021/06/26 02:21:24;;;;;;;3.92;3.53;;;;;;;;;;5028972;28;20112;-75
2021/06/26 02:23:51;;;;;;;3.33;3.03;;;;;;;;;;5015559;28;20072;-74
2021/06/26 02:26:17;;;;;;;2.63;2.42;;;;;;;;;;5015793;28;20088;-74
2021/06/26 02:28:43;;;;;;;2.92;2.63;;;;;;;;;;4997262;28;20061;-73
2021/06/26 02:31:09;;;;;;;3.15;2.85;;;;;;;;;;5014747;28;20482;-74
2021/06/26 02:33:35;;;;;;;3.65;2.92;;;;;;;;;;5014716;28;20398;-74
2021/06/26 02:36:01;;;;;;;2.63;2.40;;;;;;;;;;5014360;28;20466;-74
2021/06/26 02:38:27;;;;;;;2.65;2.45;;;;;;;;;;4989189;28;20031;-74
2021/06/26 02:40:53;;;;;;;4.40;2.72;;;;;;;;;;4995304;28;20505;-73
2021/06/26 02:43:19;;;;;;;4.25;3.20;;;;;;;;;;4977581;28;20034;-73
2021/06/26 02:45:46;;;;;;;2.90;2.60;;;;;;;;;;4994858;28;20026;-73
2021/06/26 02:48:12;;;;;;;3.03;2.40;;;;;;;;;;4997241;28;20034;-73
2021/06/26 02:50:38;;;;;;;2.83;2.60;;;;;;;;;;5022313;28;20018;-73
2021/06/26 02:53:04;;;;;;;2.25;2.15;;;;;;;;;;5032858;28;20104;-73
2021/06/26 02:55:31;;;;;;;2.47;1.92;;;;;;;;;;5033976;28;20546;-73
2021/06/26 02:57:57;;;;;;;2.05;1.83;;;;;;;;;;5033738;28;20061;-74
2021/06/26 03:00:24;;;;;;;2.67;2.38;;;;;;;;;;5014077;28;20030;-74
2021/06/26 03:02:50;;;;;;;2.38;2.17;;;;;;;;;;4996236;28;20026;-74
2021/06/26 03:05:16;;;;;;;3.40;2.47;;;;;;;;;;5014188;28;20034;-74
2021/06/26 03:07:52;;;;;;;3.90;2.45;;;;;;;;;;5014189;28;20058;-74
2021/06/26 03:10:18;;;;;;;2.72;2.35;;;;;;;;;;4999463;28;20109;-74
2021/06/26 03:12:45;;;;;;;2.50;2.13;;;;;;;;;;4994102;28;20034;-74
2021/06/26 03:15:12;;;;;;;2.75;2.28;;;;;;;;;;4994290;28;20119;-73
2021/06/26 03:17:38;;;;;;;2.85;2.53;;;;;;;;;;4994071;28;20030;-74
2021/06/26 03:20:05;;;;;;;2.05;1.95;;;;;;;;;;5010714;28;20026;-74
2021/06/26 03:22:31;;;;;;;2.10;2.00;;;;;;;;;;5011506;28;20022;-75
2021/06/26 03:24:57;;;;;;;2.63;2.42;;;;;;;;;;5010212;28;20041;-75
2021/06/26 03:27:23;;;;;;;3.10;2.80;;;;;;;;;;5013097;28;20029;-74
2021/06/26 03:29:49;;;;;;;2.28;2.08;;;;;;;;;;5011190;28;20363;-75
2021/06/26 03:32:15;;;;;;;2.47;2.28;;;;;;;;;;5013224;28;20017;-75
2021/06/26 03:34:41;;;;;;;1.80;1.70;;;;;;;;;;5012994;28;20026;-75
2021/06/26 03:37:07;;;;;;;2.33;2.13;;;;;;;;;;5013101;28;20090;-75
2021/06/26 03:39:34;;;;;;;2.60;2.35;;;;;;;;;;5012408;28;20060;-75
2021/06/26 03:42:00;;;;;;;2.58;2.38;;;;;;;;;;5010650;28;20475;-75
2021/06/26 03:44:26;;;;;;;2.50;2.22;;;;;;;;;;4995572;28;20133;-74
2021/06/26 03:46:52;;;;;;;2.75;2.55;;;;;;;;;;5012960;28;20129;-75
2021/06/26 03:49:18;;;;;;;2.55;2.35;;;;;;;;;;5015083;28;20021;-76
2021/06/26 03:51:44;;;;;;;2.88;2.35;;;;;;;;;;5012179;28;20136;-76
2021/06/26 03:54:10;;;;;;;2.50;2.30;;;;;;;;;;5012560;28;20065;-73
2021/06/26 03:56:36;;;;;;;3.45;2.42;;;;;;;;;;5012753;28;20037;-74
2021/06/26 03:59:03;;;;;;;4.30;2.90;;;;;;;;;;5012909;28;20079;-75
2021/06/26 04:01:29;;;;;;;3.45;3.15;;;;;;;;;;5012429;28;20037;-75
2021/06/26 04:03:55;;;;;;;3.53;2.53;;;;;;;;;;5013036;28;20136;-74
2021/06/26 04:06:21;;;;;;;2.90;2.60;;;;;;;;;;5012963;28;20390;-75
2021/06/26 04:08:47;;;;;;;4.53;3.67;;;;;;;;;;5012742;28;20475;-75
2021/06/26 04:11:13;;;;;;;3.78;2.90;;;;;;;;;;4989332;28;20081;-74
2021/06/26 04:13:39;;;;;;;3.25;2.75;;;;;;;;;;4975402;28;20422;-75
2021/06/26 04:16:06;;;;;;;3.47;3.03;;;;;;;;;;4992913;28;20030;-74
2021/06/26 04:18:32;;;;;;;3.05;2.72;;;;;;;;;;4996150;28;20029;-74
2021/06/26 04:20:58;;;;;;;3.22;2.85;;;;;;;;;;5020585;28;20061;-74
2021/06/26 04:23:24;;;;;;;2.90;2.70;;;;;;;;;;5011848;28;20087;-74
2021/06/26 04:25:51;;;;;;;3.10;2.83;;;;;;;;;;4994535;28;20038;-74
2021/06/26 04:28:17;;;;;;;6.32;3.17;;;;;;;;;;4994995;28;20033;-74
2021/06/26 04:30:44;;;;;;;3.45;3.15;;;;;;;;;;4994980;28;20084;-74
2021/06/26 04:33:11;;;;;;;3.83;2.42;;;;;;;;;;4996617;28;20089;-74
2021/06/26 04:35:37;;;;;;;2.30;2.10;;;;;;;;;;4992615;28;20034;-74
2021/06/26 04:38:03;;;;;;;2.05;1.92;;;;;;;;;;4992521;28;20061;-74
2021/06/26 04:40:29;;;;;;;3.05;2.65;;;;;;;;;;4992853;28;20482;-74
2021/06/26 04:42:56;;;;;;;2.53;2.33;;;;;;;;;;5003535;28;20437;-74
2021/06/26 04:45:22;;;;;;;3.00;2.70;;;;;;;;;;4994838;28;20033;-73
2021/06/26 04:47:48;;;;;;;3.03;2.70;;;;;;;;;;5012368;28;20041;-74
2021/06/26 04:50:15;;;;;;;2.90;2.70;;;;;;;;;;5019845;28;20770;-74
2021/06/26 04:52:41;;;;;;;3.88;3.50;;;;;;;;;;5019674;28;20045;-74
2021/06/26 04:55:08;;;;;;;3.72;3.20;;;;;;;;;;5012235;28;20030;-74
2021/06/26 04:57:34;;;;;;;5.28;3.45;;;;;;;;;;5012125;28;20029;-74
2021/06/26 05:00:01;;;;;;;3.67;3.33;;;;;;;;;;5012004;28;20143;-74
2021/06/26 05:02:27;;;;;;;2.92;2.72;;;;;;;;;;5010388;28;20026;-75
2021/06/26 05:04:53;;;;;;;3.55;3.10;;;;;;;;;;4992934;28;20750;-75
2021/06/26 05:07:19;;;;;;;3.03;2.60;;;;;;;;;;4992520;28;20033;-75
2021/06/26 05:09:45;;;;;;;3.08;2.67;;;;;;;;;;4992486;28;20030;-75
2021/06/26 05:12:11;;;;;;;4.03;3.10;;;;;;;;;;4992553;28;20054;-75
2021/06/26 05:14:37;;;;;;;3.10;2.28;;;;;;;;;;5008833;28;20030;-75
2021/06/26 05:17:03;;;;;;;4.45;3.28;;;;;;;;;;5012451;28;20037;-74
2021/06/26 05:19:29;;;;;;;3.65;3.20;;;;;;;;;;5016888;28;20459;-74
2021/06/26 05:21:55;;;;;;;4.55;3.85;;;;;;;;;;5032176;28;20094;-75
2021/06/26 05:24:21;;;;;;;5.75;3.55;;;;;;;;;;5012833;28;20445;-75
2021/06/26 05:26:47;;;;;;;2.15;2.05;;;;;;;;;;5011614;28;20026;-74
2021/06/26 05:29:14;;;;;;;2.30;2.10;;;;;;;;;;5001295;28;20148;-73
2021/06/26 05:31:40;;;;;;;1.60;1.50;;;;;;;;;;4996899;28;20022;-74
2021/06/26 05:34:06;;;;;;;1.40;1.40;;;;;;;;;;5003172;28;20030;-74
2021/06/26 05:36:32;;;;;;;2.45;2.25;;;;;;;;;;5016068;28;20053;-75
2021/06/26 05:39:00;;;;;;;1.70;1.60;;;;;;;;;;5015758;28;20030;-74
2021/06/26 05:41:26;;;;;;;2.13;2.03;;;;;;;;;;5016203;28;20093;-75
2021/06/26 05:43:52;;;;;;;2.78;2.58;;;;;;;;;;4996758;28;20222;-75
2021/06/26 05:46:18;;;;;;;2.78;2.58;;;;;;;;;;4996137;28;20642;-75
2021/06/26 05:48:44;;;;;;;3.83;2.90;;;;;;;;;;4996274;28;20483;-75
2021/06/26 05:51:14;;;;;;;3.63;3.33;;;;;;;;;;5024922;28;20030;-74
2021/06/26 05:53:40;;;;;;;3.42;3.17;;;;;;;;;;5035974;28;20480;-74
2021/06/26 05:56:06;;;;;;;2.67;2.47;;;;;;;;;;4999589;28;20034;-74
2021/06/26 05:58:35;;;;;;;2.60;2.40;;;;;;;;;;5015281;28;20029;-74
2021/06/26 06:01:01;;;;;;;3.97;3.33;;;;;;;;;;5015403;28;20037;-75
2021/06/26 06:03:27;;;;;;;3.08;2.88;;;;;;;;;;5015163;28;20108;-75
2021/06/26 06:05:53;;;;;;;2.35;2.25;;;;;;;;;;4985612;28;20065;-74
2021/06/26 06:08:20;;;;;;;3.80;3.50;;;;;;;;;;4995423;28;20475;-74
2021/06/26 06:10:47;;;;;;;4.20;3.80;;;;;;;;;;4995628;28;20026;-74
2021/06/26 06:13:14;;;;;;;3.33;3.03;;;;;;;;;;4999503;28;20030;-74
2021/06/26 06:15:43;;;;;;;3.15;2.90;;;;;;;;;;5014865;28;20040;-74
2021/06/26 06:18:10;;;;;;;2.50;2.40;;;;;;;;;;5047894;22;20113;-78
2021/06/26 06:20:36;;;;;;;2.45;2.35;;;;;;;;;;5043691;28;20047;-76
2021/06/26 06:23:03;;;;;;;3.35;3.05;;;;;;;;;;5077134;28;20056;-77
2021/06/26 06:25:29;;;;;;;2.92;2.72;;;;;;;;;;5049946;28;20025;-76
2021/06/26 06:27:55;;;;;;;2.70;2.42;;;;;;;;;;5015073;28;20387;-76
2021/06/26 06:30:21;;;;;;;3.30;3.00;;;;;;;;;;5018109;28;20034;-78
2021/06/26 06:32:47;;;;;;;3.00;2.80;;;;;;;;;;5016953;28;20630;-78
2021/06/26 06:35:14;;;;;;;5.22;4.82;;;;;;;;;;4998212;28;20113;-78
2021/06/26 06:37:40;;;;;;;3.92;3.63;;;;;;;;;;4998986;28;20493;-78
2021/06/26 06:40:07;;;;;;;4.40;4.07;;;;;;;;;;5016869;28;20045;-77
2021/06/26 06:42:34;;;;;;;5.82;5.32;;;;;;;;;;5017788;28;20021;-77
2021/06/26 06:45:01;;;;;;;4.63;4.22;;;;;;;;;;5017637;28;20076;-77
2021/06/26 06:47:27;;;;;;;4.72;4.32;;;;;;;;;;5017278;28;20033;-78
2021/06/26 06:49:53;;;;;;;5.47;5.00;;;;;;;;;;5020577;28;20021;-78
2021/06/26 06:52:19;;;;;;;3.42;3.22;;;;;;;;;;5044201;28;20022;-78
2021/06/26 06:54:45;;;;;;;4.57;4.18;;;;;;;;;;5029776;28;20057;-78
2021/06/26 06:57:11;;;;;;;4.80;4.40;;;;;;;;;;5016781;28;20033;-78
2021/06/26 06:59:37;;;;;;;4.05;3.70;;;;;;;;;;5018587;28;20022;-79
2021/06/26 07:02:03;;;;;;;3.28;2.97;;;;;;;;;;5018046;28;20386;-78
2021/06/26 07:04:29;;;;;;;3.10;2.80;;;;;;;;;;5021133;28;20025;-77
2021/06/26 07:06:56;;;;;;;3.20;2.90;;;;;;;;;;5019545;28;20499;-78
2021/06/26 07:09:22;;;;;;;3.15;2.88;;;;;;;;;;5018835;28;20032;-78
2021/06/26 07:11:48;;;;;;;2.58;2.42;;;;;;;;;;5018549;28;20057;-78
2021/06/26 07:14:14;;;;;;;2.42;2.25;;;;;;;;;;5018623;28;20026;-78
2021/06/26 07:16:40;;;;;;;2.55;2.35;;;;;;;;;;5020488;28;20048;-78
2021/06/26 07:19:06;;;;;;;2.85;2.65;;;;;;;;;;5029974;28;20026;-79
2021/06/26 07:21:33;;;;;;;3.00;2.80;;;;;;;;;;5032791;28;20025;-78
2021/06/26 07:23:59;;;;;;;4.45;3.97;;;;;;;;;;5025025;28;20025;-78
2021/06/26 07:26:25;;;;;;;4.20;3.90;;;;;;;;;;5025751;28;20068;-79
2021/06/26 07:28:51;;;;;;;3.25;2.95;;;;;;;;;;5040961;28;20496;-79
2021/06/26 07:31:17;;;;;;;4.53;4.07;;;;;;;;;;5022277;28;20033;-79
2021/06/26 07:33:43;;;;;;;3.83;3.53;;;;;;;;;;5018010;28;20037;-79
2021/06/26 07:36:09;;;;;;;3.60;3.33;;;;;;;;;;5018831;28;20045;-80
2021/06/26 07:38:35;;;;;;;4.10;3.40;;;;;;;;;;5017318;28;20036;-80
2021/06/26 07:41:01;;;;;;;9.00;4.97;;;;;;;;;;5028289;28;20378;-79
2021/06/26 07:43:27;;;;;;;5.65;4.03;;;;;;;;;;5034314;28;20025;-78
2021/06/26 07:45:53;;;;;;;5.25;4.63;;;;;;;;;;5002515;28;20478;-80
2021/06/26 07:48:19;;;;;;;5.57;3.88;;;;;;;;;;5017460;28;20098;-78
2021/06/26 07:50:51;;;;;;;4.72;4.25;;;;;;;;;;5003757;28;20076;-80
2021/06/26 07:53:17;;;;;;;5.87;3.57;;;;;;;;;;5044392;28;20029;-78
2021/06/26 07:55:43;;;;;;;4.60;3.72;;;;;;;;;;5036052;28;20280;-78
2021/06/26 07:58:09;;;;;;;4.13;3.22;;;;;;;;;;5037817;28;20021;-78
2021/06/26 08:00:35;;;;;;;4.45;3.42;;;;;;;;;;5036421;28;20021;-78
2021/06/26 08:03:01;;;;;;;3.42;3.13;;;;;;;;;;5017737;28;20037;-77
2021/06/26 08:05:27;;;;;;;4.18;3.78;;;;;;;;;;5016961;28;20036;-78
2021/06/26 08:07:53;;;;;;;3.22;3.00;;;;;;;;;;5014770;28;20048;-77
2021/06/26 08:10:20;;;;;;;2.97;2.78;;;;;;;;;;5015132;28;20037;-78
2021/06/26 08:12:46;;;;;;;3.70;3.40;;;;;;;;;;4998049;28;20037;-75
2021/06/26 08:15:12;;;;;;;3.83;3.53;;;;;;;;;;5008453;28;20029;-76
2021/06/26 08:17:38;;;;;;;4.72;3.90;;;;;;;;;;5017373;28;20388;-78
2021/06/26 08:20:05;;;;;;;3.53;3.33;;;;;;;;;;5029603;28;20456;-78
2021/06/26 08:22:31;;;;;;;4.30;3.90;;;;;;;;;;5055330;28;20021;-78
2021/06/26 08:24:57;;;;;;;4.68;3.28;;;;;;;;;;5056332;28;20028;-78
2021/06/26 08:27:23;;;;;;;3.42;3.13;;;;;;;;;;5059922;28;20033;-78
2021/06/26 08:29:49;;;;;;;4.45;4.05;;;;;;;;;;5064539;28;20032;-78
2021/06/26 08:32:15;;;;;;;3.60;3.30;;;;;;;;;;5053136;28;20013;-79
2021/06/26 08:34:41;;;;;;;3.25;2.95;;;;;;;;;;5052092;28;20101;-79
2021/06/26 08:37:07;;;;;;;3.90;2.60;;;;;;;;;;5050550;28;20021;-80
2021/06/26 08:39:33;;;;;;;3.00;2.80;;;;;;;;;;5041075;28;20025;-77
2021/06/26 08:42:00;;;;;;;2.92;2.67;;;;;;;;;;5025599;28;20026;-78
2021/06/26 08:44:26;;;;;;;3.83;3.53;;;;;;;;;;5023355;28;20041;-77
2021/06/26 08:46:53;;;;;;;2.83;2.63;;;;;;;;;;5000880;28;20063;-77
2021/06/26 08:49:32;;;;;;;3.05;2.80;;;;;;;;;;5018336;28;20026;-80
2021/06/26 08:55:21;;;;;;;3.38;3.08;;;;;;;;;;4977926;28;20038;-78
2021/06/26 09:01:13;;;;;;;;;;;;;;;;;;;;;
2021/06/26 09:07:09;;;;;;;;;;;;;;;;;;;;;
2021/06/26 09:12:28;;;;;;;3.10;2.88;;;;;;;;;;4991843;28;20036;-79
2021/06/26 09:15:13;;;;;;;2.70;2.42;;;;;;;;;;4995055;28;20039;-80
2021/06/26 09:20:37;;;;;;;2.85;2.65;;;;;;;;;;5035655;28;20046;-78
2021/06/26 09:23:23;;;;;;;2.80;2.60;;;;;;;;;;5009358;28;20029;-80
2021/06/26 09:26:28;;;;;;;;;;;;;;;;;;;;;
2021/06/26 09:32:47;;;;;;;;;;;;;;;;;;;;;
2021/06/26 09:38:52;;;;;;;;;;;;;;;;;;;;;
2021/06/26 09:44:26;;;;;;;3.50;3.13;;;;;;;;;;5019815;28;20064;-80
2021/06/26 09:46:52;;;;;;;2.85;2.65;;;;;;;;;;5067338;23;20026;-78
2021/06/26 09:49:28;;;;;;;4.53;3.13;;;;;;;;;;5000536;28;20033;-79
2021/06/26 09:51:58;;;;;;;3.63;3.33;;;;;;;;;;5030036;28;20018;-79
2021/06/26 09:54:27;;;;;;;3.08;2.60;;;;;;;;;;5040565;28;20090;-80
2021/06/26 09:56:53;;;;;;;3.88;3.50;;;;;;;;;;5038234;28;20026;-80
2021/06/26 09:59:29;;;;;;;4.45;3.53;;;;;;;;;;5017009;28;20030;-79
2021/06/26 10:01:55;;;;;;;3.78;3.28;;;;;;;;;;5019457;28;20580;-79
2021/06/26 10:04:21;;;;;;;3.42;3.15;;;;;;;;;;5018645;28;20159;-79
2021/06/26 10:06:47;;;;;;;3.88;3.58;;;;;;;;;;5018487;28;20029;-78
2021/06/26 10:09:14;;;;;;;3.85;3.55;;;;;;;;;;5019765;28;20041;-79
2021/06/26 10:11:40;;;;;;;3.60;3.30;;;;;;;;;;5003574;28;20027;-79
2021/06/26 10:14:07;;;;;;;4.22;3.83;;;;;;;;;;4985092;28;20442;-77
2021/06/26 10:16:34;;;;;;;4.57;3.85;;;;;;;;;;5002321;28;20027;-77
2021/06/26 10:19:01;;;;;;;3.58;3.33;;;;;;;;;;5001726;28;20022;-79
2021/06/26 10:21:28;;;;;;;4.18;3.40;;;;;;;;;;5022798;28;20033;-77
2021/06/26 10:23:55;;;;;;;3.03;2.80;;;;;;;;;;5038676;28;20026;-79
2021/06/26 10:26:22;;;;;;;3.95;3.65;;;;;;;;;;5008198;28;20463;-77
2021/06/26 10:28:54;;;;;;;3.05;2.85;;;;;;;;;;5023817;28;20022;-80
2021/06/26 10:31:30;;;;;;;3.30;3.00;;;;;;;;;;5031275;28;20026;-81
2021/06/26 10:34:13;;;;;;;4.80;3.72;;;;;;;;;;5004702;28;20037;-80
2021/06/26 10:36:40;;;;;;;3.90;2.90;;;;;;;;;;5022296;28;20057;-80
2021/06/26 10:39:16;;;;;;;3.25;2.95;;;;;;;;;;5022926;28;20030;-80
2021/06/26 10:41:42;;;;;;;2.92;2.63;;;;;;;;;;5021162;28;20057;-79
2021/06/26 10:44:09;;;;;;;3.03;2.83;;;;;;;;;;5021691;28;20045;-80
2021/06/26 10:46:35;;;;;;;2.95;2.75;;;;;;;;;;5022440;28;20030;-80
2021/06/26 10:49:02;;;;;;;3.63;3.33;;;;;;;;;;5004264;28;20042;-79
2021/06/26 10:51:33;;;;;;;3.10;2.80;;;;;;;;;;5033307;28;20021;-79
2021/06/26 10:54:12;;;;;;;3.28;2.83;;;;;;;;;;5024324;28;20026;-80
2021/06/26 10:56:39;;;;;;;2.80;2.40;;;;;;;;;;5022179;28;20129;-79
2021/06/26 10:59:23;;;;;;;2.92;2.63;;;;;;;;;;5004501;28;20022;-78
2021/06/26 11:01:56;;;;;;;2.90;2.70;;;;;;;;;;5008270;28;20100;-77
2021/06/26 11:04:22;;;;;;;2.55;2.30;;;;;;;;;;5029169;28;20022;-77
2021/06/26 11:06:52;;;;;;;3.15;2.85;;;;;;;;;;5023031;28;20040;-78
2021/06/26 11:09:19;;;;;;;2.72;2.53;;;;;;;;;;5001984;28;20026;-78
2021/06/26 11:11:49;;;;;;;3.95;2.85;;;;;;;;;;5019243;28;20491;-78
2021/06/26 11:14:19;;;;;;;2.80;2.60;;;;;;;;;;5001860;28;20383;-78
2021/06/26 11:16:47;;;;;;;2.60;2.22;;;;;;;;;;5002685;28;20022;-77
2021/06/26 11:19:13;;;;;;;2.20;2.08;;;;;;;;;;5021839;28;20459;-78
2021/06/26 11:21:50;;;;;;;2.25;2.13;;;;;;;;;;5027675;28;20045;-79
2021/06/26 11:24:17;;;;;;;2.50;2.30;;;;;;;;;;5003529;28;20183;-78
2021/06/26 11:26:51;;;;;;;2.30;2.10;;;;;;;;;;5003399;28;20068;-79
2021/06/26 11:29:37;;;;;;;2.17;2.00;;;;;;;;;;4983774;28;20119;-80
2021/06/26 11:32:04;;;;;;;2.47;2.28;;;;;;;;;;5001665;28;20030;-78
2021/06/26 11:34:31;;;;;;;3.95;2.67;;;;;;;;;;5002815;28;20144;-79
2021/06/26 11:37:02;;;;;;;2.35;2.20;;;;;;;;;;4984849;28;20041;-79
2021/06/26 11:39:29;;;;;;;2.83;2.33;;;;;;;;;;5001570;28;20093;-79
2021/06/26 11:41:55;;;;;;;2.65;2.47;;;;;;;;;;5002072;28;20029;-79
2021/06/26 11:44:37;;;;;;;1.85;1.75;;;;;;;;;;5018251;28;20084;-79
2021/06/26 11:47:04;;;;;;;2.40;2.20;;;;;;;;;;5021276;28;20068;-78
2021/06/26 11:49:37;;;;;;;2.67;2.47;;;;;;;;;;5021750;28;20041;-79
2021/06/26 11:52:04;;;;;;;2.40;2.30;;;;;;;;;;5027090;28;20041;-79
2021/06/26 11:54:30;;;;;;;2.67;2.47;;;;;;;;;;4990785;28;20049;-78
2021/06/26 11:56:56;;;;;;;2.47;2.28;;;;;;;;;;4983877;28;20030;-79
2021/06/26 11:59:22;;;;;;;2.55;2.42;;;;;;;;;;5000947;28;20033;-78
2021/06/26 12:01:50;;;;;;;2.88;2.50;;;;;;;;;;4983597;28;20085;-79
2021/06/26 12:04:29;;;;;;;3.10;2.60;;;;;;;;;;5011509;28;20022;-78
2021/06/26 12:06:56;;;;;;;2.50;2.30;;;;;;;;;;5020629;28;20030;-77
2021/06/26 12:09:23;;;;;;;2.70;2.50;;;;;;;;;;5021122;28;20156;-79
2021/06/26 12:11:50;;;;;;;2.75;2.55;;;;;;;;;;5012670;28;20033;-79
2021/06/26 12:14:16;;;;;;;5.50;3.20;;;;;;;;;;5007014;28;20034;-79
2021/06/26 12:16:43;;;;;;;2.50;2.30;;;;;;;;;;5002627;28;20037;-78
2021/06/26 12:19:10;;;;;;;3.05;2.28;;;;;;;;;;5000108;23;20077;-74
2021/06/26 12:21:46;;;;;;;2.10;2.00;;;;;;;;;;4987516;28;20026;-75
2021/06/26 12:24:24;;;;;;;2.80;2.60;;;;;;;;;;5011653;28;20030;-74
2021/06/26 12:27:01;;;;;;;3.47;2.10;;;;;;;;;;4996867;28;20038;-75
2021/06/26 12:29:27;;;;;;;3.47;2.72;;;;;;;;;;4997046;28;20045;-74
2021/06/26 12:31:53;;;;;;;2.85;2.65;;;;;;;;;;4996810;28;20386;-74
2021/06/26 12:34:19;;;;;;;3.10;2.47;;;;;;;;;;4996311;28;20062;-74
2021/06/26 12:36:55;;;;;;;3.15;2.95;;;;;;;;;;4999571;28;20026;-74
2021/06/26 12:39:22;;;;;;;2.42;2.22;;;;;;;;;;4993011;28;20033;-74
2021/06/26 12:42:07;;;;;;;2.03;1.92;;;;;;;;;;4992630;28;20026;-75
2021/06/26 12:44:33;;;;;;;3.00;2.80;;;;;;;;;;4993204;28;20026;-74
2021/06/26 12:46:59;;;;;;;5.22;2.58;;;;;;;;;;4993612;28;20066;-74
2021/06/26 12:49:35;;;;;;;2.78;2.58;;;;;;;;;;4974797;28;20031;-75
2021/06/26 12:52:11;;;;;;;2.80;2.60;;;;;;;;;;5001514;28;20145;-74
2021/06/26 12:54:47;;;;;;;2.33;2.22;;;;;;;;;;5012167;28;20026;-75
2021/06/26 12:57:13;;;;;;;4.38;2.60;;;;;;;;;;4992523;28;20034;-74
2021/06/26 12:59:39;;;;;;;2.80;2.60;;;;;;;;;;4991897;28;20034;-75
2021/06/26 13:02:05;;;;;;;3.70;3.35;;;;;;;;;;4974846;28;20392;-74
2021/06/26 13:04:39;;;;;;;2.33;2.13;;;;;;;;;;4992311;28;20018;-74
2021/06/26 13:07:06;;;;;;;2.72;2.53;;;;;;;;;;4992428;28;20026;-75
2021/06/26 13:09:36;;;;;;;2.50;2.40;;;;;;;;;;4991918;28;20491;-75
2021/06/26 13:12:23;;;;;;;4.57;2.88;;;;;;;;;;4992524;28;20057;-74
2021/06/26 13:14:51;;;;;;;3.53;2.55;;;;;;;;;;4992329;28;20034;-75
2021/06/26 13:17:19;;;;;;;2.50;2.40;;;;;;;;;;4992008;28;20495;-75
2021/06/26 13:19:47;;;;;;;2.00;1.90;;;;;;;;;;4991537;28;20030;-75
2021/06/26 13:22:13;;;;;;;2.72;2.20;;;;;;;;;;5003079;28;20025;-75
2021/06/26 13:24:39;;;;;;;2.30;2.13;;;;;;;;;;5011919;28;20053;-74
2021/06/26 13:27:05;;;;;;;2.08;1.98;;;;;;;;;;5000739;28;20038;-75
2021/06/26 13:29:31;;;;;;;2.35;2.15;;;;;;;;;;4992031;28;20158;-75
2021/06/26 13:31:58;;;;;;;2.65;2.45;;;;;;;;;;4992315;28;20030;-75
2021/06/26 13:34:24;;;;;;;2.28;2.17;;;;;;;;;;4974356;28;20121;-75
2021/06/26 13:36:50;;;;;;;2.60;1.90;;;;;;;;;;4991518;28;20045;-75
2021/06/26 13:39:16;;;;;;;2.78;2.55;;;;;;;;;;4991688;28;20034;-75
2021/06/26 13:41:42;;;;;;;1.83;1.73;;;;;;;;;;4992110;28;20072;-74
2021/06/26 13:44:08;;;;;;;2.22;2.03;;;;;;;;;;4975618;28;20510;-74
2021/06/26 13:46:34;;;;;;;2.00;1.88;;;;;;;;;;4995719;28;20038;-75
2021/06/26 13:49:00;;;;;;;3.00;2.58;;;;;;;;;;4995353;28;20054;-74
2021/06/26 13:51:26;;;;;;;2.50;2.30;;;;;;;;;;5003576;28;20026;-74
2021/06/26 13:53:53;;;;;;;2.58;2.38;;;;;;;;;;5011625;28;20022;-74
2021/06/26 13:56:19;;;;;;;2.60;2.40;;;;;;;;;;5015046;28;20105;-74
2021/06/26 13:58:45;;;;;;;2.50;2.30;;;;;;;;;;4998851;28;20029;-75
2021/06/26 14:01:11;;;;;;;2.63;2.42;;;;;;;;;;4995376;28;20454;-75
2021/06/26 14:03:37;;;;;;;2.50;2.30;;;;;;;;;;4995632;28;20029;-75
2021/06/26 14:06:03;;;;;;;2.40;2.30;;;;;;;;;;4995395;28;20110;-75
2021/06/26 14:08:29;;;;;;;2.50;2.13;;;;;;;;;;4994938;28;20034;-75
2021/06/26 14:10:55;;;;;;;2.60;2.40;;;;;;;;;;4995370;28;20056;-75
2021/06/26 14:13:22;;;;;;;3.42;2.40;;;;;;;;;;4995545;28;20101;-75
2021/06/26 14:15:48;;;;;;;2.58;2.33;;;;;;;;;;4995456;28;20529;-75
2021/06/26 14:18:14;;;;;;;3.13;2.33;;;;;;;;;;4995269;28;20422;-75
2021/06/26 14:20:41;;;;;;;2.40;2.25;;;;;;;;;;5002050;28;20026;-76
2021/06/26 14:23:07;;;;;;;2.65;2.45;;;;;;;;;;5006931;28;20084;-76
2021/06/26 14:25:33;;;;;;;2.30;2.10;;;;;;;;;;5015292;28;20540;-76
2021/06/26 14:27:59;;;;;;;2.70;2.47;;;;;;;;;;5014403;28;20087;-76
2021/06/26 14:30:25;;;;;;;2.33;2.22;;;;;;;;;;4995366;28;20182;-76
2021/06/26 14:32:52;;;;;;;2.45;2.30;;;;;;;;;;4995182;28;20027;-76
2021/06/26 14:35:18;;;;;;;1.85;1.75;;;;;;;;;;4994901;28;20069;-75
2021/06/26 14:37:44;;;;;;;2.53;2.33;;;;;;;;;;4995578;28;20062;-76
2021/06/26 14:40:11;;;;;;;3.08;2.83;;;;;;;;;;4995513;28;20027;-76
2021/06/26 14:42:37;;;;;;;3.10;2.80;;;;;;;;;;4996205;28;20023;-75
2021/06/26 14:45:04;;;;;;;3.00;2.72;;;;;;;;;;4996039;28;20054;-76
2021/06/26 14:47:30;;;;;;;2.30;2.13;;;;;;;;;;4995407;28;20031;-75
2021/06/26 14:49:56;;;;;;;2.80;2.50;;;;;;;;;;4995019;28;20391;-75
2021/06/26 14:52:22;;;;;;;2.40;2.30;;;;;;;;;;5004528;28;20025;-75
2021/06/26 14:54:48;;;;;;;2.20;2.10;;;;;;;;;;5015378;28;20026;-76
2021/06/26 14:57:15;;;;;;;2.28;2.17;;;;;;;;;;5013500;28;20502;-75
2021/06/26 14:59:41;;;;;;;2.25;2.10;;;;;;;;;;5007918;28;20042;-75
2021/06/26 15:02:07;;;;;;;2.33;2.17;;;;;;;;;;4994835;28;20436;-73
2021/06/26 15:04:33;;;;;;;2.35;2.22;;;;;;;;;;4994839;28;20091;-75
2021/06/26 15:06:59;;;;;;;5.55;2.38;;;;;;;;;;4994370;28;20035;-75
2021/06/26 15:09:25;;;;;;;2.50;2.30;;;;;;;;;;4993816;28;20038;-76
2021/06/26 15:11:51;;;;;;;2.85;2.55;;;;;;;;;;4994723;28;20434;-75
2021/06/26 15:14:17;;;;;;;2.25;2.10;;;;;;;;;;4994931;28;20036;-75
2021/06/26 15:16:43;;;;;;;2.65;2.30;;;;;;;;;;4994377;28;20031;-76